Terminal Aerodrome Forecast
Issued by NWS

Home | Current Version | Previous Version | Text Only | Print | Product List | Glossary On
Versions: 1 2 3 4 5 6 7 8 9 10 11 12 13 14 15
000
FTUS43 KUNR 281100
TAFGCC
TAF
KGCC 281120Z 2812/2912 VRB05KT P6SM OVC060
     FM281800 01007KT 2SM -SN OVC010
     FM282200 36009KT 3/4SM -SN VV006=

USA.gov is the U.S. government's official web portal to all federal, state and local government web resources and services.